sensor_id;sensor_type;location;lat;lon;timestamp;pressure;altitude;pressure_sealevel;temperature;humidity
44313;BME280;38833;51.142;-0.974;2022-08-04T00:02:24;99919.53;;;27.32;35.93
44313;BME280;38833;51.142;-0.974;2022-08-04T00:05:03;99918.22;;;27.57;35.90
44313;BME280;38833;51.142;-0.974;2022-08-04T00:07:40;99920.51;;;27.37;35.88
44313;BME280;38833;51.142;-0.974;2022-08-04T00:10:16;99920.14;;;27.64;35.78
44313;BME280;38833;51.142;-0.974;2022-08-04T00:12:51;99927.19;;;27.35;35.84
44313;BME280;38833;51.142;-0.974;2022-08-04T00:15:27;99925.76;;;27.08;35.86
44313;BME280;38833;51.142;-0.974;2022-08-04T00:18:04;99926.54;;;27.36;35.83
44313;BME280;38833;51.142;-0.974;2022-08-04T00:20:38;99923.37;;;27.58;35.82
44313;BME280;38833;51.142;-0.974;2022-08-04T00:23:14;99925.26;;;27.35;35.83
44313;BME280;38833;51.142;-0.974;2022-08-04T00:25:48;99924.90;;;27.08;35.82
44313;BME280;38833;51.142;-0.974;2022-08-04T00:28:22;99923.02;;;27.31;35.83
44313;BME280;38833;51.142;-0.974;2022-08-04T00:30:56;99924.12;;;27.57;35.77
44313;BME280;38833;51.142;-0.974;2022-08-04T00:33:31;99924.66;;;27.35;35.73
44313;BME280;38833;51.142;-0.974;2022-08-04T00:36:05;99926.97;;;27.54;35.77
44313;BME280;38833;51.142;-0.974;2022-08-04T00:38:40;99927.87;;;27.32;35.74
44313;BME280;38833;51.142;-0.974;2022-08-04T00:41:22;99927.79;;;27.33;35.71
44313;BME280;38833;51.142;-0.974;2022-08-04T00:44:12;99928.35;;;27.36;35.67
44313;BME280;38833;51.142;-0.974;2022-08-04T00:47:03;99927.35;;;27.31;35.72
44313;BME280;38833;51.142;-0.974;2022-08-04T00:49:57;99924.69;;;27.03;35.73
44313;BME280;38833;51.142;-0.974;2022-08-04T00:52:46;99920.47;;;27.25;35.76
44313;BME280;38833;51.142;-0.974;2022-08-04T00:55:37;99920.09;;;27.40;35.54
44313;BME280;38833;51.142;-0.974;2022-08-04T00:58:25;99922.92;;;27.04;35.64
44313;BME280;38833;51.142;-0.974;2022-08-04T01:01:02;99924.55;;;27.48;35.72
44313;BME280;38833;51.142;-0.974;2022-08-04T01:03:49;99925.59;;;27.21;35.75
44313;BME280;38833;51.142;-0.974;2022-08-04T01:06:33;99926.63;;;27.44;35.73
44313;BME280;38833;51.142;-0.974;2022-08-04T01:09:23;99921.17;;;27.21;35.73
44313;BME280;38833;51.142;-0.974;2022-08-04T01:12:09;99920.40;;;26.96;35.71
44313;BME280;38833;51.142;-0.974;2022-08-04T01:15:03;99920.44;;;27.22;35.69
44313;BME280;38833;51.142;-0.974;2022-08-04T01:17:47;99919.51;;;27.43;35.68
44313;BME280;38833;51.142;-0.974;2022-08-04T01:20:31;99915.79;;;27.18;35.70
44313;BME280;38833;51.142;-0.974;2022-08-04T01:23:32;99915.31;;;27.40;35.68
44313;BME280;38833;51.142;-0.974;2022-08-04T01:26:40;99917.61;;;27.41;35.64
44313;BME280;38833;51.142;-0.974;2022-08-04T01:29:16;99915.88;;;27.22;35.60
44313;BME280;38833;51.142;-0.974;2022-08-04T01:31:59;99922.17;;;27.40;35.64
44313;BME280;38833;51.142;-0.974;2022-08-04T01:34:36;99924.60;;;26.95;35.57
44313;BME280;38833;51.142;-0.974;2022-08-04T01:37:22;99924.94;;;27.38;35.65
44313;BME280;38833;51.142;-0.974;2022-08-04T01:40:01;99925.74;;;27.47;35.50
44313;BME280;38833;51.142;-0.974;2022-08-04T01:42:36;99929.92;;;27.21;35.57
44313;BME280;38833;51.142;-0.974;2022-08-04T01:45:12;99927.09;;;26.92;35.60
44313;BME280;38833;51.142;-0.974;2022-08-04T01:47:49;99929.61;;;26.90;35.61
44313;BME280;38833;51.142;-0.974;2022-08-04T01:50:24;99930.34;;;27.40;35.62
44313;BME280;38833;51.142;-0.974;2022-08-04T01:52:57;99929.07;;;27.36;35.67
44313;BME280;38833;51.142;-0.974;2022-08-04T01:55:32;99929.51;;;27.14;35.66
44313;BME280;38833;51.142;-0.974;2022-08-04T01:58:06;99928.60;;;27.41;35.59
44313;BME280;38833;51.142;-0.974;2022-08-04T02:04:13;99920.35;;;27.27;35.47
44313;BME280;38833;51.142;-0.974;2022-08-04T02:06:56;99921.17;;;27.36;35.32
44313;BME280;38833;51.142;-0.974;2022-08-04T02:09:38;99923.63;;;27.27;35.46
44313;BME280;38833;51.142;-0.974;2022-08-04T02:12:23;99919.47;;;27.29;35.44
44313;BME280;38833;51.142;-0.974;2022-08-04T02:15:02;99917.05;;;27.51;35.43
44313;BME280;38833;51.142;-0.974;2022-08-04T02:17:50;99915.33;;;27.24;35.50
44313;BME280;38833;51.142;-0.974;2022-08-04T02:20:32;99913.93;;;27.46;35.50
44313;BME280;38833;51.142;-0.974;2022-08-04T02:23:09;99910.69;;;27.70;35.13
44313;BME280;38833;51.142;-0.974;2022-08-04T02:25:50;99912.49;;;27.40;35.22
44313;BME280;38833;51.142;-0.974;2022-08-04T02:28:32;99912.37;;;27.52;35.33
44313;BME280;38833;51.142;-0.974;2022-08-04T02:31:13;99911.38;;;27.01;35.34
44313;BME280;38833;51.142;-0.974;2022-08-04T02:33:58;99913.28;;;27.27;35.31
44313;BME280;38833;51.142;-0.974;2022-08-04T02:36:36;99913.06;;;27.21;35.40
44313;BME280;38833;51.142;-0.974;2022-08-04T02:39:11;99914.18;;;27.20;35.41
44313;BME280;38833;51.142;-0.974;2022-08-04T02:41:46;99917.30;;;27.42;35.39
44313;BME280;38833;51.142;-0.974;2022-08-04T02:44:21;99917.00;;;27.17;35.42
44313;BME280;38833;51.142;-0.974;2022-08-04T02:46:55;99913.53;;;27.40;35.39
44313;BME280;38833;51.142;-0.974;2022-08-04T02:49:29;99914.50;;;27.41;35.37
44313;BME280;38833;51.142;-0.974;2022-08-04T02:52:09;99916.35;;;27.21;35.34
44313;BME280;38833;51.142;-0.974;2022-08-04T02:54:44;99911.23;;;27.49;34.95
44313;BME280;38833;51.142;-0.974;2022-08-04T02:57:22;99913.32;;;27.17;34.98
44313;BME280;38833;51.142;-0.974;2022-08-04T03:00:04;99914.79;;;27.19;35.29
44313;BME280;38833;51.142;-0.974;2022-08-04T03:02:53;99909.99;;;27.10;35.40
44313;BME280;38833;51.142;-0.974;2022-08-04T03:05:35;99913.33;;;27.34;35.39
44313;BME280;38833;51.142;-0.974;2022-08-04T03:08:49;99913.49;;;27.33;35.39
44313;BME280;38833;51.142;-0.974;2022-08-04T03:11:55;99917.55;;;27.34;35.40
44313;BME280;38833;51.142;-0.974;2022-08-04T03:14:53;99914.46;;;27.19;35.29
44313;BME280;38833;51.142;-0.974;2022-08-04T03:20:04;99913.74;;;27.27;35.46
44313;BME280;38833;51.142;-0.974;2022-08-04T03:23:40;99914.21;;;27.19;35.53
44313;BME280;38833;51.142;-0.974;2022-08-04T03:28:54;99909.58;;;27.14;35.59
44313;BME280;38833;51.142;-0.974;2022-08-04T03:31:52;99908.39;;;27.22;35.46
44313;BME280;38833;51.142;-0.974;2022-08-04T03:34:46;99904.67;;;26.92;35.54
44313;BME280;38833;51.142;-0.974;2022-08-04T03:37:38;99907.99;;;27.08;35.60
44313;BME280;38833;51.142;-0.974;2022-08-04T03:40:34;99907.49;;;26.97;35.46
44313;BME280;38833;51.142;-0.974;2022-08-04T03:43:58;99908.04;;;27.18;35.45
44313;BME280;38833;51.142;-0.974;2022-08-04T03:46:47;99913.43;;;27.11;35.53
44313;BME280;38833;51.142;-0.974;2022-08-04T03:49:48;99915.16;;;27.36;35.17
44313;BME280;38833;51.142;-0.974;2022-08-04T03:52:55;99919.13;;;26.95;35.41
44313;BME280;38833;51.142;-0.974;2022-08-04T03:55:43;99917.79;;;27.34;35.18
44313;BME280;38833;51.142;-0.974;2022-08-04T03:59:32;99920.20;;;27.33;35.17
44313;BME280;38833;51.142;-0.974;2022-08-04T04:03:00;99924.33;;;27.01;35.25
44313;BME280;38833;51.142;-0.974;2022-08-04T04:08:16;99923.29;;;27.11;35.39
44313;BME280;38833;51.142;-0.974;2022-08-04T04:11:16;99925.71;;;27.26;35.19
44313;BME280;38833;51.142;-0.974;2022-08-04T04:14:16;99927.02;;;27.15;35.32
44313;BME280;38833;51.142;-0.974;2022-08-04T04:17:07;99925.78;;;27.12;35.35
44313;BME280;38833;51.142;-0.974;2022-08-04T04:19:53;99930.10;;;27.07;35.44
44313;BME280;38833;51.142;-0.974;2022-08-04T04:22:44;99932.68;;;27.00;35.52
44313;BME280;38833;51.142;-0.974;2022-08-04T04:25:33;99931.98;;;27.25;35.20
44313;BME280;38833;51.142;-0.974;2022-08-04T04:28:28;99934.85;;;27.10;35.40
44313;BME280;38833;51.142;-0.974;2022-08-04T04:31:19;99935.28;;;26.81;35.50
44313;BME280;38833;51.142;-0.974;2022-08-04T04:34:07;99934.32;;;27.12;35.36
44313;BME280;38833;51.142;-0.974;2022-08-04T04:36:49;99936.51;;;27.09;35.40
44313;BME280;38833;51.142;-0.974;2022-08-04T04:39:34;99940.97;;;27.06;35.44
44313;BME280;38833;51.142;-0.974;2022-08-04T04:42:30;99942.36;;;26.97;35.56
44313;BME280;38833;51.142;-0.974;2022-08-04T04:45:14;99943.67;;;26.97;35.57
44313;BME280;38833;51.142;-0.974;2022-08-04T04:47:55;99944.49;;;27.00;35.55
44313;BME280;38833;51.142;-0.974;2022-08-04T04:50:38;99942.43;;;27.07;35.41
44313;BME280;38833;51.142;-0.974;2022-08-04T04:53:22;99946.33;;;26.88;35.67
44313;BME280;38833;51.142;-0.974;2022-08-04T04:56:02;99948.15;;;27.05;35.42
44313;BME280;38833;51.142;-0.974;2022-08-04T04:58:38;99951.78;;;26.85;35.66
44313;BME280;38833;51.142;-0.974;2022-08-04T05:01:45;99952.41;;;26.81;35.70
44313;BME280;38833;51.142;-0.974;2022-08-04T05:05:15;99956.63;;;26.78;35.72
44313;BME280;38833;51.142;-0.974;2022-08-04T05:08:06;99957.60;;;26.86;35.59
44313;BME280;38833;51.142;-0.974;2022-08-04T05:10:56;99955.41;;;26.84;35.60
44313;BME280;38833;51.142;-0.974;2022-08-04T05:13:37;99959.39;;;26.91;35.51
44313;BME280;38833;51.142;-0.974;2022-08-04T05:16:18;99959.93;;;26.78;35.63
44313;BME280;38833;51.142;-0.974;2022-08-04T05:19:00;99966.98;;;26.81;35.59
44313;BME280;38833;51.142;-0.974;2022-08-04T05:21:41;99970.85;;;26.77;35.64
44313;BME280;38833;51.142;-0.974;2022-08-04T05:24:18;99973.90;;;26.78;35.61
44313;BME280;38833;51.142;-0.974;2022-08-04T05:26:56;99976.39;;;26.79;35.57
44313;BME280;38833;51.142;-0.974;2022-08-04T05:29:34;99977.05;;;27.10;35.47
44313;BME280;38833;51.142;-0.974;2022-08-04T05:32:12;99971.52;;;26.93;35.36
44313;BME280;38833;51.142;-0.974;2022-08-04T05:34:54;99970.84;;;26.73;35.59
44313;BME280;38833;51.142;-0.974;2022-08-04T05:37:28;99976.14;;;26.92;35.33
44313;BME280;38833;51.142;-0.974;2022-08-04T05:40:05;99981.29;;;26.91;35.32
44313;BME280;38833;51.142;-0.974;2022-08-04T05:42:40;99980.40;;;26.71;35.59
44313;BME280;38833;51.142;-0.974;2022-08-04T05:45:13;99978.07;;;26.78;35.52
44313;BME280;38833;51.142;-0.974;2022-08-04T05:47:47;99979.84;;;26.74;35.53
44313;BME280;38833;51.142;-0.974;2022-08-04T05:50:21;99981.42;;;26.92;35.29
44313;BME280;38833;51.142;-0.974;2022-08-04T05:52:55;99981.46;;;26.72;35.52
44313;BME280;38833;51.142;-0.974;2022-08-04T05:55:29;99986.06;;;26.85;35.33
44313;BME280;38833;51.142;-0.974;2022-08-04T05:58:03;99987.50;;;27.02;35.08
44313;BME280;38833;51.142;-0.974;2022-08-04T06:00:38;99986.48;;;26.86;35.30
44313;BME280;38833;51.142;-0.974;2022-08-04T06:03:14;99983.04;;;26.81;35.34
44313;BME280;38833;51.142;-0.974;2022-08-04T06:05:49;99980.18;;;26.65;35.28
44313;BME280;38833;51.142;-0.974;2022-08-04T06:08:24;99979.21;;;26.84;35.32
44313;BME280;38833;51.142;-0.974;2022-08-04T06:11:01;99979.33;;;26.68;35.53
44313;BME280;38833;51.142;-0.974;2022-08-04T06:13:40;99979.85;;;26.92;35.22
44313;BME280;38833;51.142;-0.974;2022-08-04T06:16:17;99979.91;;;27.04;35.03
44313;BME280;38833;51.142;-0.974;2022-08-04T06:18:52;99977.83;;;26.75;35.43
44313;BME280;38833;51.142;-0.974;2022-08-04T06:21:27;99982.15;;;26.68;35.50
44313;BME280;38833;51.142;-0.974;2022-08-04T06:24:04;99987.75;;;26.61;35.61
44313;BME280;38833;51.142;-0.974;2022-08-04T06:26:39;99991.17;;;26.61;35.61
44313;BME280;38833;51.142;-0.974;2022-08-04T06:29:17;99991.80;;;26.62;35.53
44313;BME280;38833;51.142;-0.974;2022-08-04T06:31:52;99993.49;;;26.91;35.50
44313;BME280;38833;51.142;-0.974;2022-08-04T06:34:28;99996.63;;;26.82;35.64
44313;BME280;38833;51.142;-0.974;2022-08-04T06:37:02;99996.16;;;26.88;35.52
44313;BME280;38833;51.142;-0.974;2022-08-04T06:39:36;99996.09;;;26.63;35.52
44313;BME280;38833;51.142;-0.974;2022-08-04T06:42:10;100001.18;;;26.93;35.14
44313;BME280;38833;51.142;-0.974;2022-08-04T06:44:44;100009.08;;;27.12;34.84
44313;BME280;38833;51.142;-0.974;2022-08-04T06:47:18;100012.76;;;26.55;35.35
44313;BME280;38833;51.142;-0.974;2022-08-04T06:49:54;100014.17;;;26.73;35.42
44313;BME280;38833;51.142;-0.974;2022-08-04T06:52:27;100021.81;;;26.66;35.46
44313;BME280;38833;51.142;-0.974;2022-08-04T06:55:01;100018.05;;;26.69;35.43
44313;BME280;38833;51.142;-0.974;2022-08-04T06:57:35;100020.08;;;26.82;35.27
44313;BME280;38833;51.142;-0.974;2022-08-04T07:00:12;100027.45;;;26.78;35.32
44313;BME280;38833;51.142;-0.974;2022-08-04T07:02:48;100029.22;;;26.73;35.40
44313;BME280;38833;51.142;-0.974;2022-08-04T07:05:23;100026.13;;;26.70;35.43
44313;BME280;38833;51.142;-0.974;2022-08-04T07:07:56;100020.63;;;26.96;35.12
44313;BME280;38833;51.142;-0.974;2022-08-04T07:10:30;100023.14;;;26.91;35.10
44313;BME280;38833;51.142;-0.974;2022-08-04T07:13:04;100027.67;;;26.88;35.13
44313;BME280;38833;51.142;-0.974;2022-08-04T07:15:40;100034.61;;;26.77;35.32
44313;BME280;38833;51.142;-0.974;2022-08-04T07:18:16;100038.36;;;26.76;35.33
44313;BME280;38833;51.142;-0.974;2022-08-04T07:20:50;100038.51;;;26.70;35.39
44313;BME280;38833;51.142;-0.974;2022-08-04T07:23:24;100036.74;;;26.85;35.19
44313;BME280;38833;51.142;-0.974;2022-08-04T07:25:58;100036.50;;;26.56;35.26
44313;BME280;38833;51.142;-0.974;2022-08-04T07:28:31;100029.35;;;26.74;35.30
44313;BME280;38833;51.142;-0.974;2022-08-04T07:31:05;100031.30;;;26.71;35.37
44313;BME280;38833;51.142;-0.974;2022-08-04T07:33:43;100030.07;;;26.70;35.40
44313;BME280;38833;51.142;-0.974;2022-08-04T07:36:16;100023.18;;;26.70;35.39
44313;BME280;38833;51.142;-0.974;2022-08-04T07:38:50;100025.67;;;26.65;35.43
44313;BME280;38833;51.142;-0.974;2022-08-04T07:41:23;100024.66;;;26.66;35.43
44313;BME280;38833;51.142;-0.974;2022-08-04T07:43:57;100028.52;;;26.69;35.37
44313;BME280;38833;51.142;-0.974;2022-08-04T07:46:30;100028.55;;;26.69;35.37
44313;BME280;38833;51.142;-0.974;2022-08-04T07:49:04;100029.84;;;26.71;35.32
44313;BME280;38833;51.142;-0.974;2022-08-04T07:51:39;100027.17;;;26.70;35.33
44313;BME280;38833;51.142;-0.974;2022-08-04T07:54:13;100022.13;;;26.81;35.14
44313;BME280;38833;51.142;-0.974;2022-08-04T07:56:47;100022.94;;;26.87;35.08
44313;BME280;38833;51.142;-0.974;2022-08-04T07:59:21;100024.34;;;26.90;35.08
44313;BME280;38833;51.142;-0.974;2022-08-04T08:01:58;100025.36;;;26.88;34.74
44313;BME280;38833;51.142;-0.974;2022-08-04T08:04:32;100024.88;;;27.43;34.32
44313;BME280;38833;51.142;-0.974;2022-08-04T08:07:05;100029.37;;;27.46;34.02
44313;BME280;38833;51.142;-0.974;2022-08-04T08:09:39;100033.70;;;28.62;32.59
44313;BME280;38833;51.142;-0.974;2022-08-04T08:12:12;100028.91;;;29.16;31.57
44313;BME280;38833;51.142;-0.974;2022-08-04T08:14:46;100023.77;;;29.91;30.37
44313;BME280;38833;51.142;-0.974;2022-08-04T08:17:20;100019.58;;;29.71;29.95
44313;BME280;38833;51.142;-0.974;2022-08-04T08:19:53;100020.33;;;29.47;30.17
44313;BME280;38833;51.142;-0.974;2022-08-04T08:22:27;100020.83;;;30.53;29.30
44313;BME280;38833;51.142;-0.974;2022-08-04T08:25:00;100016.52;;;30.12;29.39
44313;BME280;38833;51.142;-0.974;2022-08-04T08:27:36;100015.24;;;29.22;30.71
44313;BME280;38833;51.142;-0.974;2022-08-04T08:30:10;100021.46;;;28.82;31.21
44313;BME280;38833;51.142;-0.974;2022-08-04T08:32:44;100020.60;;;28.44;32.18
44313;BME280;38833;51.142;-0.974;2022-08-04T08:35:17;100026.00;;;27.98;32.78
44313;BME280;38833;51.142;-0.974;2022-08-04T08:37:55;100025.94;;;27.85;32.99
44313;BME280;38833;51.142;-0.974;2022-08-04T08:40:34;100024.89;;;27.84;33.17
44313;BME280;38833;51.142;-0.974;2022-08-04T08:43:39;100027.55;;;27.83;32.91
44313;BME280;38833;51.142;-0.974;2022-08-04T08:47:03;100023.06;;;27.90;32.79
44313;BME280;38833;51.142;-0.974;2022-08-04T08:49:57;100028.26;;;27.83;32.80
44313;BME280;38833;51.142;-0.974;2022-08-04T08:52:49;100032.67;;;27.97;32.91
44313;BME280;38833;51.142;-0.974;2022-08-04T08:55:36;100035.39;;;27.79;33.16
44313;BME280;38833;51.142;-0.974;2022-08-04T08:58:29;100035.25;;;27.93;33.25
44313;BME280;38833;51.142;-0.974;2022-08-04T09:01:11;100038.97;;;27.66;33.66
44313;BME280;38833;51.142;-0.974;2022-08-04T09:04:03;100038.44;;;27.68;33.54
44313;BME280;38833;51.142;-0.974;2022-08-04T09:06:49;100036.88;;;27.59;33.49
44313;BME280;38833;51.142;-0.974;2022-08-04T09:09:51;100037.40;;;27.61;33.72
44313;BME280;38833;51.142;-0.974;2022-08-04T09:12:38;100040.02;;;28.18;33.72
44313;BME280;38833;51.142;-0.974;2022-08-04T09:15:16;100037.19;;;27.95;33.78
44313;BME280;38833;51.142;-0.974;2022-08-04T09:17:54;100034.37;;;27.84;33.45
44313;BME280;38833;51.142;-0.974;2022-08-04T09:20:33;100039.11;;;27.65;33.72
44313;BME280;38833;51.142;-0.974;2022-08-04T09:23:17;100038.68;;;27.74;33.53
44313;BME280;38833;51.142;-0.974;2022-08-04T09:25:59;100038.78;;;27.94;33.70
44313;BME280;38833;51.142;-0.974;2022-08-04T09:28:45;100040.46;;;27.89;34.04
44313;BME280;38833;51.142;-0.974;2022-08-04T09:31:23;100039.21;;;27.85;34.09
44313;BME280;38833;51.142;-0.974;2022-08-04T09:36:54;100042.10;;;27.74;34.13
44313;BME280;38833;51.142;-0.974;2022-08-04T09:39:48;100042.77;;;27.83;34.28
44313;BME280;38833;51.142;-0.974;2022-08-04T09:42:45;100045.47;;;27.89;34.53
44313;BME280;38833;51.142;-0.974;2022-08-04T09:45:26;100045.57;;;27.99;34.73
44313;BME280;38833;51.142;-0.974;2022-08-04T09:48:07;100046.21;;;27.99;34.74
44313;BME280;38833;51.142;-0.974;2022-08-04T09:50:42;100044.53;;;27.86;34.31
44313;BME280;38833;51.142;-0.974;2022-08-04T09:53:29;100045.05;;;27.73;34.32
44313;BME280;38833;51.142;-0.974;2022-08-04T09:56:27;100047.17;;;27.90;34.11
44313;BME280;38833;51.142;-0.974;2022-08-04T09:59:12;100047.10;;;27.68;34.51
44313;BME280;38833;51.142;-0.974;2022-08-04T10:01:53;100048.60;;;27.89;34.25
44313;BME280;38833;51.142;-0.974;2022-08-04T10:04:30;100049.96;;;27.90;34.20
44313;BME280;38833;51.142;-0.974;2022-08-04T10:07:18;100053.19;;;27.94;34.19
44313;BME280;38833;51.142;-0.974;2022-08-04T10:10:02;100059.16;;;27.93;34.03
44313;BME280;38833;51.142;-0.974;2022-08-04T10:13:01;100061.46;;;27.87;34.06
44313;BME280;38833;51.142;-0.974;2022-08-04T10:15:44;100058.86;;;27.93;34.16
44313;BME280;38833;51.142;-0.974;2022-08-04T10:18:34;100060.80;;;28.00;34.05
44313;BME280;38833;51.142;-0.974;2022-08-04T10:21:18;100060.69;;;28.07;33.95
44313;BME280;38833;51.142;-0.974;2022-08-04T10:24:10;100054.34;;;28.04;34.15
44313;BME280;38833;51.142;-0.974;2022-08-04T10:26:51;100054.94;;;28.04;34.08
44313;BME280;38833;51.142;-0.974;2022-08-04T10:29:29;100057.55;;;28.42;33.91
44313;BME280;38833;51.142;-0.974;2022-08-04T10:32:08;100058.79;;;28.14;34.03
44313;BME280;38833;51.142;-0.974;2022-08-04T10:34:58;100058.06;;;28.10;33.83
44313;BME280;38833;51.142;-0.974;2022-08-04T10:37:38;100056.88;;;27.93;34.01
44313;BME280;38833;51.142;-0.974;2022-08-04T10:40:17;100057.95;;;28.12;33.95
44313;BME280;38833;51.142;-0.974;2022-08-04T10:42:57;100059.85;;;28.28;33.68
44313;BME280;38833;51.142;-0.974;2022-08-04T10:45:35;100060.75;;;28.21;33.82
44313;BME280;38833;51.142;-0.974;2022-08-04T10:48:19;100056.92;;;28.35;33.61
44313;BME280;38833;51.142;-0.974;2022-08-04T10:51:03;100055.36;;;28.66;33.51
44313;BME280;38833;51.142;-0.974;2022-08-04T10:53:38;100054.82;;;28.37;33.56
44313;BME280;38833;51.142;-0.974;2022-08-04T10:56:23;100060.78;;;28.38;33.56
44313;BME280;38833;51.142;-0.974;2022-08-04T10:59:02;100062.95;;;28.20;33.53
44313;BME280;38833;51.142;-0.974;2022-08-04T11:01:39;100067.14;;;28.22;33.48
44313;BME280;38833;51.142;-0.974;2022-08-04T11:04:20;100068.91;;;28.12;33.60
44313;BME280;38833;51.142;-0.974;2022-08-04T11:06:57;100069.73;;;28.12;33.49
44313;BME280;38833;51.142;-0.974;2022-08-04T11:09:33;100077.27;;;28.41;33.39
44313;BME280;38833;51.142;-0.974;2022-08-04T11:12:14;100077.73;;;28.20;33.56
44313;BME280;38833;51.142;-0.974;2022-08-04T11:14:54;100081.55;;;28.20;33.45
44313;BME280;38833;51.142;-0.974;2022-08-04T11:17:34;100080.72;;;28.30;33.35
44313;BME280;38833;51.142;-0.974;2022-08-04T11:20:13;100082.74;;;28.16;33.44
44313;BME280;38833;51.142;-0.974;2022-08-04T11:23:03;100077.50;;;28.03;33.67
44313;BME280;38833;51.142;-0.974;2022-08-04T11:25:46;100079.94;;;27.98;33.66
44313;BME280;38833;51.142;-0.974;2022-08-04T11:28:32;100080.75;;;28.28;33.65
44313;BME280;38833;51.142;-0.974;2022-08-04T11:31:13;100081.43;;;28.44;33.57
44313;BME280;38833;51.142;-0.974;2022-08-04T11:33:54;100077.54;;;28.89;32.84
44313;BME280;38833;51.142;-0.974;2022-08-04T11:36:33;100078.56;;;28.22;33.15
44313;BME280;38833;51.142;-0.974;2022-08-04T11:39:17;100074.87;;;28.64;32.81
44313;BME280;38833;51.142;-0.974;2022-08-04T11:42:00;100074.28;;;28.48;32.79
44313;BME280;38833;51.142;-0.974;2022-08-04T11:44:42;100073.33;;;28.69;32.51
44313;BME280;38833;51.142;-0.974;2022-08-04T11:47:24;100078.66;;;28.69;32.79
44313;BME280;38833;51.142;-0.974;2022-08-04T11:50:03;100083.69;;;28.42;33.21
44313;BME280;38833;51.142;-0.974;2022-08-04T11:52:41;100090.88;;;28.45;33.18
44313;BME280;38833;51.142;-0.974;2022-08-04T11:55:16;100087.42;;;28.47;33.22
44313;BME280;38833;51.142;-0.974;2022-08-04T11:57:50;100086.30;;;28.50;32.71
44313;BME280;38833;51.142;-0.974;2022-08-04T12:00:26;100083.41;;;28.64;32.56
44313;BME280;38833;51.142;-0.974;2022-08-04T12:03:14;100085.12;;;28.85;32.53
44313;BME280;38833;51.142;-0.974;2022-08-04T12:05:59;100086.52;;;28.59;32.94
44313;BME280;38833;51.142;-0.974;2022-08-04T12:08:53;100093.05;;;28.00;33.14
44313;BME280;38833;51.142;-0.974;2022-08-04T12:11:43;100088.80;;;28.24;33.39
44313;BME280;38833;51.142;-0.974;2022-08-04T12:14:27;100087.82;;;28.49;33.36
44313;BME280;38833;51.142;-0.974;2022-08-04T12:17:02;100086.99;;;27.98;33.47
44313;BME280;38833;51.142;-0.974;2022-08-04T12:19:45;100086.23;;;28.19;33.42
44313;BME280;38833;51.142;-0.974;2022-08-04T12:22:22;100086.07;;;28.19;33.38
44313;BME280;38833;51.142;-0.974;2022-08-04T12:25:02;100084.72;;;28.11;33.54
44313;BME280;38833;51.142;-0.974;2022-08-04T12:27:40;100086.24;;;27.81;33.63
44313;BME280;38833;51.142;-0.974;2022-08-04T12:30:15;100083.55;;;28.11;33.46
44313;BME280;38833;51.142;-0.974;2022-08-04T12:32:55;100079.30;;;28.49;33.40
44313;BME280;38833;51.142;-0.974;2022-08-04T12:35:34;100079.55;;;28.38;33.21
44313;BME280;38833;51.142;-0.974;2022-08-04T12:38:11;100085.66;;;28.62;32.82
44313;BME280;38833;51.142;-0.974;2022-08-04T12:40:48;100091.41;;;28.59;32.58
44313;BME280;38833;51.142;-0.974;2022-08-04T12:43:25;100093.58;;;28.61;32.87
44313;BME280;38833;51.142;-0.974;2022-08-04T12:46:02;100091.34;;;28.21;33.10
44313;BME280;38833;51.142;-0.974;2022-08-04T12:48:38;100095.64;;;28.44;33.10
44313;BME280;38833;51.142;-0.974;2022-08-04T12:51:12;100092.39;;;28.30;33.24
44313;BME280;38833;51.142;-0.974;2022-08-04T12:53:46;100088.15;;;28.36;33.14
44313;BME280;38833;51.142;-0.974;2022-08-04T12:56:25;100087.46;;;28.24;33.25
44313;BME280;38833;51.142;-0.974;2022-08-04T12:59:01;100087.81;;;28.24;33.30
44313;BME280;38833;51.142;-0.974;2022-08-04T13:01:36;100090.13;;;28.19;33.36
44313;BME280;38833;51.142;-0.974;2022-08-04T13:04:13;100090.86;;;28.21;33.39
44313;BME280;38833;51.142;-0.974;2022-08-04T13:06:54;100088.61;;;28.28;33.39
44313;BME280;38833;51.142;-0.974;2022-08-04T13:09:31;100085.22;;;28.28;33.28
44313;BME280;38833;51.142;-0.974;2022-08-04T13:12:14;100081.72;;;28.42;33.01
44313;BME280;38833;51.142;-0.974;2022-08-04T13:14:50;100089.08;;;28.27;33.32
44313;BME280;38833;51.142;-0.974;2022-08-04T13:17:24;100092.67;;;28.24;33.39
44313;BME280;38833;51.142;-0.974;2022-08-04T13:19:58;100085.33;;;28.21;33.42
44313;BME280;38833;51.142;-0.974;2022-08-04T13:22:33;100085.06;;;28.17;33.60
44313;BME280;38833;51.142;-0.974;2022-08-04T13:25:07;100080.42;;;28.28;33.36
44313;BME280;38833;51.142;-0.974;2022-08-04T13:27:42;100078.10;;;28.18;33.66
44313;BME280;38833;51.142;-0.974;2022-08-04T13:30:18;100075.10;;;28.15;33.55
44313;BME280;38833;51.142;-0.974;2022-08-04T13:32:54;100082.84;;;28.08;33.75
44313;BME280;38833;51.142;-0.974;2022-08-04T13:35:30;100083.19;;;27.89;33.59
44313;BME280;38833;51.142;-0.974;2022-08-04T13:38:07;100083.14;;;28.06;33.67
44313;BME280;38833;51.142;-0.974;2022-08-04T13:40:43;100080.24;;;28.12;33.56
44313;BME280;38833;51.142;-0.974;2022-08-04T13:43:27;100079.86;;;28.15;33.48
44313;BME280;38833;51.142;-0.974;2022-08-04T13:46:03;100079.11;;;28.14;33.48
44313;BME280;38833;51.142;-0.974;2022-08-04T13:48:39;100077.78;;;28.19;33.49
44313;BME280;38833;51.142;-0.974;2022-08-04T13:51:16;100079.34;;;28.13;33.58
44313;BME280;38833;51.142;-0.974;2022-08-04T13:53:55;100082.19;;;28.22;33.43
44313;BME280;38833;51.142;-0.974;2022-08-04T13:56:33;100081.03;;;28.30;33.34
44313;BME280;38833;51.142;-0.974;2022-08-04T13:59:10;100078.22;;;28.26;33.45
44313;BME280;38833;51.142;-0.974;2022-08-04T14:01:57;100080.04;;;28.39;33.27
44313;BME280;38833;51.142;-0.974;2022-08-04T14:04:35;100081.33;;;28.35;33.36
44313;BME280;38833;51.142;-0.974;2022-08-04T14:07:12;100073.66;;;28.23;33.56
44313;BME280;38833;51.142;-0.974;2022-08-04T14:09:47;100072.12;;;28.22;33.52
44313;BME280;38833;51.142;-0.974;2022-08-04T14:12:21;100070.07;;;28.24;33.56
44313;BME280;38833;51.142;-0.974;2022-08-04T14:14:54;100071.86;;;28.19;33.56